Manistee, MI (49660)

8:59 PM EDT on July 27, 2016 (GMT -0400)
MesoWest | | Change Station

Elev 659 ft 44.22 °N, 86.31 °W | Updated 59 minutes ago

Partly Cloudy
Partly Cloudy
76 °F
Feels Like 77 °F
N
9
Wind Variable Wind from NNW
Gusts 14.0 mph

Today
High -- | Low -- °F
--% Chance of Precip.
Yesterday
High -- | Low -- °F
Precip. -- in
Pressure 29.98 in
Visibility 10.0 miles
Clouds Few 11000 ft
Heat Index 77 °F
Dew Point 67 °F
Humidity 74%
Rainfall in
Snow Depth Not available.
6:27 AM 9:14 PM
Last Quarter, 38% visible
METAR KMBL 272356Z AUTO 35004KT 10SM FEW110 24/18 A2994 RMK AO2 SLP151 T02440183 10300 20244 58002
Pressure 29.98 in
Visibility 10.0 miles
Clouds Few 11000 ft
Heat Index 77 °F
Dew Point 67 °F
Humidity 74%
Rainfall in
Snow Depth Not available.
6:27 AM 9:14 PM
Last Quarter, 38% visible
METAR KMBL 272356Z AUTO 35004KT 10SM FEW110 24/18 A2994 RMK AO2 SLP151 T02440183 10300 20244 58002

10-Day Weather Forecast

Almanac

Astronomy

Jul. 27, 2016 Rise Set
Actual Time
Civil Twilight
Nautical Twilight
Astronomical Twilight
Moon
Length of Visible Light
Length of Day
Tomorrow will be .
, % of the Moon is Illuminated

Today's Extremes

State Highs State Lows

Community

WunderPhotos

Upload Photos

1,927,986 photos uploaded!

WunderBlog® & News

Nearby

Air Quality

  Air Quality AQ Index Pollutant
Not available.

Snow Depth

Station Depth Elevation

Earthquake Activity

City Distance Mag. Time & Date
Minimum magnitude displayed is 2.5.

Coastal Water Temperatures

Place Temperature

Stations

Nearby Weather Stations

Station Location Temp. Windchill Dew Point Humidity Wind Precip. Elev Updated Type
                   

Watches & Warnings

There are currently no watches in effect.